sensor_id;sensor_type;location;lat;lon;timestamp;temperature;humidity
71649;SHT31;70112;45.624;11.760;2023-06-10T00:01:36;21.63;72.20
71649;SHT31;70112;45.624;11.760;2023-06-10T00:04:02;21.65;72.13
71649;SHT31;70112;45.624;11.760;2023-06-10T00:06:29;21.62;72.16
71649;SHT31;70112;45.624;11.760;2023-06-10T00:09:04;21.62;72.33
71649;SHT31;70112;45.624;11.760;2023-06-10T00:11:31;21.61;72.40
71649;SHT31;70112;45.624;11.760;2023-06-10T00:13:57;21.60;72.52
71649;SHT31;70112;45.624;11.760;2023-06-10T00:16:23;21.58;72.57
71649;SHT31;70112;45.624;11.760;2023-06-10T00:18:49;21.59;72.61
71649;SHT31;70112;45.624;11.760;2023-06-10T00:21:16;21.62;72.61
71649;SHT31;70112;45.624;11.760;2023-06-10T00:23:42;21.65;72.58
71649;SHT31;70112;45.624;11.760;2023-06-10T00:26:08;21.68;72.53
71649;SHT31;70112;45.624;11.760;2023-06-10T00:28:34;21.70;72.62
71649;SHT31;70112;45.624;11.760;2023-06-10T00:30:59;21.70;72.64
71649;SHT31;70112;45.624;11.760;2023-06-10T00:33:25;21.67;72.70
71649;SHT31;70112;45.624;11.760;2023-06-10T00:35:51;21.65;72.73
71649;SHT31;70112;45.624;11.760;2023-06-10T00:38:17;21.62;72.75
71649;SHT31;70112;45.624;11.760;2023-06-10T00:40:42;21.58;72.80
71649;SHT31;70112;45.624;11.760;2023-06-10T00:43:08;21.58;72.81
71649;SHT31;70112;45.624;11.760;2023-06-10T00:45:33;21.57;72.81
71649;SHT31;70112;45.624;11.760;2023-06-10T00:47:59;21.55;72.90
71649;SHT31;70112;45.624;11.760;2023-06-10T00:50:26;21.50;73.05
71649;SHT31;70112;45.624;11.760;2023-06-10T00:52:53;21.45;73.18
71649;SHT31;70112;45.624;11.760;2023-06-10T00:55:19;21.42;73.28
71649;SHT31;70112;45.624;11.760;2023-06-10T00:57:46;21.38;73.34
71649;SHT31;70112;45.624;11.760;2023-06-10T01:00:13;21.36;73.41
71649;SHT31;70112;45.624;11.760;2023-06-10T01:02:40;21.33;73.51
71649;SHT31;70112;45.624;11.760;2023-06-10T01:05:06;21.30;73.56
71649;SHT31;70112;45.624;11.760;2023-06-10T01:07:37;21.29;73.56
71649;SHT31;70112;45.624;11.760;2023-06-10T01:13:02;21.23;73.68
71649;SHT31;70112;45.624;11.760;2023-06-10T01:15:33;21.19;73.75
71649;SHT31;70112;45.624;11.760;2023-06-10T01:20:28;21.14;73.71
71649;SHT31;70112;45.624;11.760;2023-06-10T01:22:57;21.11;73.79
71649;SHT31;70112;45.624;11.760;2023-06-10T01:25:25;21.08;73.94
71649;SHT31;70112;45.624;11.760;2023-06-10T01:33:47;20.94;74.41
71649;SHT31;70112;45.624;11.760;2023-06-10T01:36:17;20.89;74.53
71649;SHT31;70112;45.624;11.760;2023-06-10T01:38:44;20.89;74.75
71649;SHT31;70112;45.624;11.760;2023-06-10T01:41:12;20.87;74.79
71649;SHT31;70112;45.624;11.760;2023-06-10T01:43:40;20.87;74.88
71649;SHT31;70112;45.624;11.760;2023-06-10T01:46:09;20.86;74.87
71649;SHT31;70112;45.624;11.760;2023-06-10T01:48:35;20.86;74.88
71649;SHT31;70112;45.624;11.760;2023-06-10T01:51:02;20.87;74.79
71649;SHT31;70112;45.624;11.760;2023-06-10T01:53:28;20.86;74.73
71649;SHT31;70112;45.624;11.760;2023-06-10T01:55:53;20.84;74.70
71649;SHT31;70112;45.624;11.760;2023-06-10T01:58:19;20.83;74.70
71649;SHT31;70112;45.624;11.760;2023-06-10T02:00:44;20.81;74.70
71649;SHT31;70112;45.624;11.760;2023-06-10T02:03:10;20.78;74.67
71649;SHT31;70112;45.624;11.760;2023-06-10T02:05:35;20.73;74.69
71649;SHT31;70112;45.624;11.760;2023-06-10T02:08:01;20.67;74.78
71649;SHT31;70112;45.624;11.760;2023-06-10T02:10:26;20.64;74.83
71649;SHT31;70112;45.624;11.760;2023-06-10T02:12:52;20.63;74.82
71649;SHT31;70112;45.624;11.760;2023-06-10T02:15:17;20.62;74.79
71649;SHT31;70112;45.624;11.760;2023-06-10T02:17:43;20.60;74.74
71649;SHT31;70112;45.624;11.760;2023-06-10T02:20:09;20.58;74.73
71649;SHT31;70112;45.624;11.760;2023-06-10T02:22:36;20.56;74.72
71649;SHT31;70112;45.624;11.760;2023-06-10T02:25:02;20.53;74.76
71649;SHT31;70112;45.624;11.760;2023-06-10T02:27:28;20.50;74.78
71649;SHT31;70112;45.624;11.760;2023-06-10T02:29:55;20.46;74.81
71649;SHT31;70112;45.624;11.760;2023-06-10T02:32:21;20.40;74.87
71649;SHT31;70112;45.624;11.760;2023-06-10T02:34:47;20.35;74.93
71649;SHT31;70112;45.624;11.760;2023-06-10T02:37:14;20.34;74.99
71649;SHT31;70112;45.624;11.760;2023-06-10T02:39:40;20.33;75.07
71649;SHT31;70112;45.624;11.760;2023-06-10T02:42:06;20.34;75.04
71649;SHT31;70112;45.624;11.760;2023-06-10T02:44:32;20.34;75.00
71649;SHT31;70112;45.624;11.760;2023-06-10T02:46:57;20.34;75.04
71649;SHT31;70112;45.624;11.760;2023-06-10T02:49:23;20.34;75.01
71649;SHT31;70112;45.624;11.760;2023-06-10T02:51:49;20.32;75.03
71649;SHT31;70112;45.624;11.760;2023-06-10T02:54:18;20.29;75.08
71649;SHT31;70112;45.624;11.760;2023-06-10T02:56:47;20.26;75.16
71649;SHT31;70112;45.624;11.760;2023-06-10T02:59:13;20.25;75.19
71649;SHT31;70112;45.624;11.760;2023-06-10T03:01:39;20.26;75.20
71649;SHT31;70112;45.624;11.760;2023-06-10T03:04:05;20.27;75.27
71649;SHT31;70112;45.624;11.760;2023-06-10T03:06:31;20.30;75.28
71649;SHT31;70112;45.624;11.760;2023-06-10T03:09:00;20.31;75.28
71649;SHT31;70112;45.624;11.760;2023-06-10T03:11:29;20.35;75.33
71649;SHT31;70112;45.624;11.760;2023-06-10T03:13:56;20.39;75.39
71649;SHT31;70112;45.624;11.760;2023-06-10T03:16:22;20.40;75.43
71649;SHT31;70112;45.624;11.760;2023-06-10T03:18:50;20.43;75.50
71649;SHT31;70112;45.624;11.760;2023-06-10T03:21:16;20.49;75.42
71649;SHT31;70112;45.624;11.760;2023-06-10T03:23:41;20.53;75.46
71649;SHT31;70112;45.624;11.760;2023-06-10T03:26:07;20.55;75.53
71649;SHT31;70112;45.624;11.760;2023-06-10T03:28:33;20.56;75.56
71649;SHT31;70112;45.624;11.760;2023-06-10T03:30:58;20.57;75.52
71649;SHT31;70112;45.624;11.760;2023-06-10T03:33:24;20.59;75.52
71649;SHT31;70112;45.624;11.760;2023-06-10T03:35:49;20.61;75.58
71649;SHT31;70112;45.624;11.760;2023-06-10T03:38:15;20.65;75.54
71649;SHT31;70112;45.624;11.760;2023-06-10T03:40:41;20.68;75.50
71649;SHT31;70112;45.624;11.760;2023-06-10T03:43:07;20.74;75.47
71649;SHT31;70112;45.624;11.760;2023-06-10T03:45:32;20.77;75.34
71649;SHT31;70112;45.624;11.760;2023-06-10T03:47:58;20.80;75.20
71649;SHT31;70112;45.624;11.760;2023-06-10T03:50:24;20.83;75.19
71649;SHT31;70112;45.624;11.760;2023-06-10T03:52:49;20.85;75.15
71649;SHT31;70112;45.624;11.760;2023-06-10T03:55:15;20.86;75.05
71649;SHT31;70112;45.624;11.760;2023-06-10T03:57:42;20.87;74.98
71649;SHT31;70112;45.624;11.760;2023-06-10T04:00:08;20.87;75.00
71649;SHT31;70112;45.624;11.760;2023-06-10T04:02:37;20.88;75.00
71649;SHT31;70112;45.624;11.760;2023-06-10T04:05:11;20.89;75.01
71649;SHT31;70112;45.624;11.760;2023-06-10T04:07:37;20.92;75.01
71649;SHT31;70112;45.624;11.760;2023-06-10T04:10:05;20.94;75.07
71649;SHT31;70112;45.624;11.760;2023-06-10T04:12:32;20.95;75.06
71649;SHT31;70112;45.624;11.760;2023-06-10T04:14:57;20.98;75.00
71649;SHT31;70112;45.624;11.760;2023-06-10T04:17:23;21.00;75.04
71649;SHT31;70112;45.624;11.760;2023-06-10T04:19:49;21.03;75.13
71649;SHT31;70112;45.624;11.760;2023-06-10T04:22:15;21.07;75.14
71649;SHT31;70112;45.624;11.760;2023-06-10T04:24:41;21.11;75.00
71649;SHT31;70112;45.624;11.760;2023-06-10T04:27:07;21.14;74.97
71649;SHT31;70112;45.624;11.760;2023-06-10T04:29:33;21.18;74.86
71649;SHT31;70112;45.624;11.760;2023-06-10T04:31:59;21.22;74.76
71649;SHT31;70112;45.624;11.760;2023-06-10T04:34:26;21.25;74.63
71649;SHT31;70112;45.624;11.760;2023-06-10T04:36:52;21.28;74.60
71649;SHT31;70112;45.624;11.760;2023-06-10T04:39:18;21.32;74.54
71649;SHT31;70112;45.624;11.760;2023-06-10T04:41:44;21.34;74.34
71649;SHT31;70112;45.624;11.760;2023-06-10T04:44:11;21.39;74.26
71649;SHT31;70112;45.624;11.760;2023-06-10T04:46:37;21.41;74.17
71649;SHT31;70112;45.624;11.760;2023-06-10T04:49:03;21.44;74.08
71649;SHT31;70112;45.624;11.760;2023-06-10T04:51:30;21.46;74.07
71649;SHT31;70112;45.624;11.760;2023-06-10T04:53:57;21.45;74.00
71649;SHT31;70112;45.624;11.760;2023-06-10T04:56:23;21.47;74.07
71649;SHT31;70112;45.624;11.760;2023-06-10T04:58:49;21.53;74.04
71649;SHT31;70112;45.624;11.760;2023-06-10T05:01:15;21.58;74.01
71649;SHT31;70112;45.624;11.760;2023-06-10T05:03:40;21.63;73.96
71649;SHT31;70112;45.624;11.760;2023-06-10T05:06:06;21.68;73.85
71649;SHT31;70112;45.624;11.760;2023-06-10T05:08:31;21.67;73.78
71649;SHT31;70112;45.624;11.760;2023-06-10T05:10:57;21.72;73.78
71649;SHT31;70112;45.624;11.760;2023-06-10T05:13:23;21.78;73.69
71649;SHT31;70112;45.624;11.760;2023-06-10T05:15:48;21.84;73.64
71649;SHT31;70112;45.624;11.760;2023-06-10T05:18:14;21.92;73.52
71649;SHT31;70112;45.624;11.760;2023-06-10T05:20:39;21.97;73.44
71649;SHT31;70112;45.624;11.760;2023-06-10T05:23:05;22.03;73.59
71649;SHT31;70112;45.624;11.760;2023-06-10T05:25:30;22.08;73.60
71649;SHT31;70112;45.624;11.760;2023-06-10T05:27:57;22.14;73.60
71649;SHT31;70112;45.624;11.760;2023-06-10T05:30:23;22.20;73.64
71649;SHT31;70112;45.624;11.760;2023-06-10T05:32:50;22.27;73.67
71649;SHT31;70112;45.624;11.760;2023-06-10T05:35:16;22.35;73.49
71649;SHT31;70112;45.624;11.760;2023-06-10T05:37:42;22.45;73.32
71649;SHT31;70112;45.624;11.760;2023-06-10T05:40:08;22.57;72.79
71649;SHT31;70112;45.624;11.760;2023-06-10T05:42:34;22.67;72.46
71649;SHT31;70112;45.624;11.760;2023-06-10T05:45:00;22.70;72.14
71649;SHT31;70112;45.624;11.760;2023-06-10T05:47:25;22.73;71.71
71649;SHT31;70112;45.624;11.760;2023-06-10T05:49:51;22.79;71.52
71649;SHT31;70112;45.624;11.760;2023-06-10T05:52:17;22.83;70.97
71649;SHT31;70112;45.624;11.760;2023-06-10T05:54:43;22.90;71.10
71649;SHT31;70112;45.624;11.760;2023-06-10T05:57:09;23.01;70.70
71649;SHT31;70112;45.624;11.760;2023-06-10T05:59:35;23.05;70.07
71649;SHT31;70112;45.624;11.760;2023-06-10T06:02:01;23.07;69.73
71649;SHT31;70112;45.624;11.760;2023-06-10T06:04:26;23.13;69.76
71649;SHT31;70112;45.624;11.760;2023-06-10T06:06:52;23.25;69.63
71649;SHT31;70112;45.624;11.760;2023-06-10T06:09:17;23.42;69.59
71649;SHT31;70112;45.624;11.760;2023-06-10T06:11:43;23.70;69.45
71649;SHT31;70112;45.624;11.760;2023-06-10T06:14:08;23.97;68.66
71649;SHT31;70112;45.624;11.760;2023-06-10T06:16:33;24.24;67.51
71649;SHT31;70112;45.624;11.760;2023-06-10T06:18:59;24.42;66.57
71649;SHT31;70112;45.624;11.760;2023-06-10T06:21:24;24.53;66.53
71649;SHT31;70112;45.624;11.760;2023-06-10T06:23:50;24.90;65.91
71649;SHT31;70112;45.624;11.760;2023-06-10T06:26:15;25.59;64.99
71649;SHT31;70112;45.624;11.760;2023-06-10T06:28:41;26.05;63.95
71649;SHT31;70112;45.624;11.760;2023-06-10T06:31:06;26.48;63.18
71649;SHT31;70112;45.624;11.760;2023-06-10T06:33:32;27.18;61.62
71649;SHT31;70112;45.624;11.760;2023-06-10T06:35:58;27.86;60.01
71649;SHT31;70112;45.624;11.760;2023-06-10T06:38:25;28.53;58.73
71649;SHT31;70112;45.624;11.760;2023-06-10T06:40:51;29.17;57.43
71649;SHT31;70112;45.624;11.760;2023-06-10T06:43:16;29.69;55.84
71649;SHT31;70112;45.624;11.760;2023-06-10T06:45:43;29.89;54.59
71649;SHT31;70112;45.624;11.760;2023-06-10T06:48:10;29.73;54.30
71649;SHT31;70112;45.624;11.760;2023-06-10T06:50:36;29.63;53.82
71649;SHT31;70112;45.624;11.760;2023-06-10T06:53:02;29.62;53.02
71649;SHT31;70112;45.624;11.760;2023-06-10T06:55:29;29.15;52.90
71649;SHT31;70112;45.624;11.760;2023-06-10T06:57:54;28.68;53.29
71649;SHT31;70112;45.624;11.760;2023-06-10T07:00:20;28.45;53.61
71649;SHT31;70112;45.624;11.760;2023-06-10T07:02:46;28.50;53.48
71649;SHT31;70112;45.624;11.760;2023-06-10T07:05:12;29.00;53.72
71649;SHT31;70112;45.624;11.760;2023-06-10T07:07:38;29.64;52.82
71649;SHT31;70112;45.624;11.760;2023-06-10T07:10:04;30.36;52.06
71649;SHT31;70112;45.624;11.760;2023-06-10T07:12:30;31.02;51.04
71649;SHT31;70112;45.624;11.760;2023-06-10T07:14:55;31.48;50.09
71649;SHT31;70112;45.624;11.760;2023-06-10T07:17:21;31.70;49.29
71649;SHT31;70112;45.624;11.760;2023-06-10T07:19:46;32.08;48.12
71649;SHT31;70112;45.624;11.760;2023-06-10T07:22:12;32.26;47.43
71649;SHT31;70112;45.624;11.760;2023-06-10T07:24:38;32.10;47.42
71649;SHT31;70112;45.624;11.760;2023-06-10T07:27:03;31.85;47.29
71649;SHT31;70112;45.624;11.760;2023-06-10T07:29:30;31.46;47.87
71649;SHT31;70112;45.624;11.760;2023-06-10T07:31:56;31.06;48.67
71649;SHT31;70112;45.624;11.760;2023-06-10T07:34:21;30.71;49.46
71649;SHT31;70112;45.624;11.760;2023-06-10T07:36:47;30.41;49.61
71649;SHT31;70112;45.624;11.760;2023-06-10T07:39:12;30.09;50.07
71649;SHT31;70112;45.624;11.760;2023-06-10T07:41:37;29.82;50.57
71649;SHT31;70112;45.624;11.760;2023-06-10T07:44:03;29.60;50.63
71649;SHT31;70112;45.624;11.760;2023-06-10T07:46:28;29.35;51.29
71649;SHT31;70112;45.624;11.760;2023-06-10T07:48:54;29.15;51.69
71649;SHT31;70112;45.624;11.760;2023-06-10T07:51:20;28.98;51.80
71649;SHT31;70112;45.624;11.760;2023-06-10T07:53:46;28.80;51.93
71649;SHT31;70112;45.624;11.760;2023-06-10T07:56:12;28.62;52.44
71649;SHT31;70112;45.624;11.760;2023-06-10T07:58:37;28.44;52.66
71649;SHT31;70112;45.624;11.760;2023-06-10T08:01:03;28.24;53.31
71649;SHT31;70112;45.624;11.760;2023-06-10T08:03:29;28.09;53.54
71649;SHT31;70112;45.624;11.760;2023-06-10T08:05:54;27.96;53.94
71649;SHT31;70112;45.624;11.760;2023-06-10T08:08:20;27.85;54.11
71649;SHT31;70112;45.624;11.760;2023-06-10T08:10:45;27.78;54.94
71649;SHT31;70112;45.624;11.760;2023-06-10T08:13:11;27.71;55.37
71649;SHT31;70112;45.624;11.760;2023-06-10T08:15:36;27.68;55.70
71649;SHT31;70112;45.624;11.760;2023-06-10T08:18:02;27.71;55.87
71649;SHT31;70112;45.624;11.760;2023-06-10T08:20:27;27.74;55.83
71649;SHT31;70112;45.624;11.760;2023-06-10T08:22:52;27.72;55.94
71649;SHT31;70112;45.624;11.760;2023-06-10T08:25:18;27.77;55.99
71649;SHT31;70112;45.624;11.760;2023-06-10T08:27:43;27.75;55.44
71649;SHT31;70112;45.624;11.760;2023-06-10T08:30:09;27.70;55.49
71649;SHT31;70112;45.624;11.760;2023-06-10T08:32:38;27.71;55.70
71649;SHT31;70112;45.624;11.760;2023-06-10T08:35:03;27.78;55.59
71649;SHT31;70112;45.624;11.760;2023-06-10T08:37:30;27.81;55.50
71649;SHT31;70112;45.624;11.760;2023-06-10T08:39:55;27.79;55.57
71649;SHT31;70112;45.624;11.760;2023-06-10T08:45:12;27.79;56.15
71649;SHT31;70112;45.624;11.760;2023-06-10T08:47:45;27.99;55.73
71649;SHT31;70112;45.624;11.760;2023-06-10T08:50:16;28.36;55.37
71649;SHT31;70112;45.624;11.760;2023-06-10T08:52:43;28.67;54.89
71649;SHT31;70112;45.624;11.760;2023-06-10T08:55:18;28.73;54.09
71649;SHT31;70112;45.624;11.760;2023-06-10T08:58:01;28.62;53.75
71649;SHT31;70112;45.624;11.760;2023-06-10T09:00:28;28.50;53.83
71649;SHT31;70112;45.624;11.760;2023-06-10T09:02:55;28.40;53.81
71649;SHT31;70112;45.624;11.760;2023-06-10T09:05:22;28.29;53.99
71649;SHT31;70112;45.624;11.760;2023-06-10T09:07:48;28.19;53.87
71649;SHT31;70112;45.624;11.760;2023-06-10T09:10:14;28.09;54.19
71649;SHT31;70112;45.624;11.760;2023-06-10T09:12:40;28.09;54.04
71649;SHT31;70112;45.624;11.760;2023-06-10T09:15:06;28.18;54.00
71649;SHT31;70112;45.624;11.760;2023-06-10T09:17:32;28.85;53.28
71649;SHT31;70112;45.624;11.760;2023-06-10T09:19:59;29.61;52.17
71649;SHT31;70112;45.624;11.760;2023-06-10T09:22:25;30.22;51.01
71649;SHT31;70112;45.624;11.760;2023-06-10T09:24:52;30.97;49.26
71649;SHT31;70112;45.624;11.760;2023-06-10T09:27:49;32.37;47.65
71649;SHT31;70112;45.624;11.760;2023-06-10T09:30:28;33.57;45.54
71649;SHT31;70112;45.624;11.760;2023-06-10T09:32:56;35.18;42.68
71649;SHT31;70112;45.624;11.760;2023-06-10T09:35:25;36.49;41.48
71649;SHT31;70112;45.624;11.760;2023-06-10T09:37:56;36.92;40.54
71649;SHT31;70112;45.624;11.760;2023-06-10T09:40:23;37.15;40.24
71649;SHT31;70112;45.624;11.760;2023-06-10T09:42:56;37.67;39.78
71649;SHT31;70112;45.624;11.760;2023-06-10T09:45:28;38.81;38.43
71649;SHT31;70112;45.624;11.760;2023-06-10T09:47:57;39.16;36.33
71649;SHT31;70112;45.624;11.760;2023-06-10T09:50:23;37.85;37.21
71649;SHT31;70112;45.624;11.760;2023-06-10T09:52:50;36.75;38.56
71649;SHT31;70112;45.624;11.760;2023-06-10T09:55:16;36.46;39.28
71649;SHT31;70112;45.624;11.760;2023-06-10T09:57:43;37.04;39.58
71649;SHT31;70112;45.624;11.760;2023-06-10T10:00:14;37.59;39.08
71649;SHT31;70112;45.624;11.760;2023-06-10T10:02:47;36.77;39.13
71649;SHT31;70112;45.624;11.760;2023-06-10T10:05:15;35.71;40.15
71649;SHT31;70112;45.624;11.760;2023-06-10T10:07:42;34.78;41.06
71649;SHT31;70112;45.624;11.760;2023-06-10T10:10:09;34.02;42.03
71649;SHT31;70112;45.624;11.760;2023-06-10T10:12:36;33.53;43.02
71649;SHT31;70112;45.624;11.760;2023-06-10T10:15:04;33.09;44.08
71649;SHT31;70112;45.624;11.760;2023-06-10T10:17:58;32.65;45.23
71649;SHT31;70112;45.624;11.760;2023-06-10T10:20:29;32.24;45.45
71649;SHT31;70112;45.624;11.760;2023-06-10T10:22:57;32.70;45.85
71649;SHT31;70112;45.624;11.760;2023-06-10T10:25:25;33.99;44.49
71649;SHT31;70112;45.624;11.760;2023-06-10T10:27:57;34.84;43.45
71649;SHT31;70112;45.624;11.760;2023-06-10T10:30:38;35.09;43.13
71649;SHT31;70112;45.624;11.760;2023-06-10T10:36:16;34.56;42.48
71649;SHT31;70112;45.624;11.760;2023-06-10T10:38:44;33.96;43.68
71649;SHT31;70112;45.624;11.760;2023-06-10T10:41:13;33.38;43.95
71649;SHT31;70112;45.624;11.760;2023-06-10T10:43:40;32.91;44.63
71649;SHT31;70112;45.624;11.760;2023-06-10T10:46:11;32.39;45.32
71649;SHT31;70112;45.624;11.760;2023-06-10T10:48:39;31.92;45.99
71649;SHT31;70112;45.624;11.760;2023-06-10T10:51:08;31.46;46.74
71649;SHT31;70112;45.624;11.760;2023-06-10T10:53:34;31.06;47.34
71649;SHT31;70112;45.624;11.760;2023-06-10T10:56:06;30.69;48.12
71649;SHT31;70112;45.624;11.760;2023-06-10T10:58:33;30.34;48.93
71649;SHT31;70112;45.624;11.760;2023-06-10T11:00:59;30.13;49.20
71649;SHT31;70112;45.624;11.760;2023-06-10T11:03:35;30.03;49.81
71649;SHT31;70112;45.624;11.760;2023-06-10T11:06:12;30.04;50.14
71649;SHT31;70112;45.624;11.760;2023-06-10T11:11:18;30.02;50.96
71649;SHT31;70112;45.624;11.760;2023-06-10T11:16:28;29.95;51.22
71649;SHT31;70112;45.624;11.760;2023-06-10T11:18:54;29.86;51.12
71649;SHT31;70112;45.624;11.760;2023-06-10T11:21:23;29.63;50.49
71649;SHT31;70112;45.624;11.760;2023-06-10T11:23:50;29.37;50.97
71649;SHT31;70112;45.624;11.760;2023-06-10T11:26:17;29.21;51.88
71649;SHT31;70112;45.624;11.760;2023-06-10T11:31:25;28.89;53.08
71649;SHT31;70112;45.624;11.760;2023-06-10T11:33:54;28.74;53.38
71649;SHT31;70112;45.624;11.760;2023-06-10T11:36:22;28.58;52.83
71649;SHT31;70112;45.624;11.760;2023-06-10T11:38:53;28.44;52.94
71649;SHT31;70112;45.624;11.760;2023-06-10T11:41:23;28.34;53.49
71649;SHT31;70112;45.624;11.760;2023-06-10T11:43:53;28.29;53.51
71649;SHT31;70112;45.624;11.760;2023-06-10T11:46:20;28.22;53.50
71649;SHT31;70112;45.624;11.760;2023-06-10T11:48:53;28.14;54.01
71649;SHT31;70112;45.624;11.760;2023-06-10T11:51:20;28.06;54.60
71649;SHT31;70112;45.624;11.760;2023-06-10T11:53:46;27.98;55.12
71649;SHT31;70112;45.624;11.760;2023-06-10T11:56:13;27.94;55.42
71649;SHT31;70112;45.624;11.760;2023-06-10T11:58:45;27.97;55.75
71649;SHT31;70112;45.624;11.760;2023-06-10T12:01:21;28.03;56.18
71649;SHT31;70112;45.624;11.760;2023-06-10T12:11:58;28.02;55.95
71649;SHT31;70112;45.624;11.760;2023-06-10T12:20:05;28.01;57.03
71649;SHT31;70112;45.624;11.760;2023-06-10T12:22:43;28.02;56.46
71649;SHT31;70112;45.624;11.760;2023-06-10T12:25:09;28.03;55.92
71649;SHT31;70112;45.624;11.760;2023-06-10T12:27:36;28.04;55.59
71649;SHT31;70112;45.624;11.760;2023-06-10T12:30:04;28.02;55.82
71649;SHT31;70112;45.624;11.760;2023-06-10T12:32:43;28.02;55.85
71649;SHT31;70112;45.624;11.760;2023-06-10T12:35:11;28.00;55.58
71649;SHT31;70112;45.624;11.760;2023-06-10T12:37:42;27.97;55.09
71649;SHT31;70112;45.624;11.760;2023-06-10T12:40:07;27.95;54.96
71649;SHT31;70112;45.624;11.760;2023-06-10T12:42:37;27.92;55.21
71649;SHT31;70112;45.624;11.760;2023-06-10T12:45:03;27.89;55.43
71649;SHT31;70112;45.624;11.760;2023-06-10T12:47:32;27.83;55.96
71649;SHT31;70112;45.624;11.760;2023-06-10T12:50:00;27.81;55.96
71649;SHT31;70112;45.624;11.760;2023-06-10T12:52:28;27.78;55.89
71649;SHT31;70112;45.624;11.760;2023-06-10T12:54:54;27.73;55.72
71649;SHT31;70112;45.624;11.760;2023-06-10T12:57:23;27.70;55.98
71649;SHT31;70112;45.624;11.760;2023-06-10T12:59:49;27.69;55.94
71649;SHT31;70112;45.624;11.760;2023-06-10T13:02:18;27.67;56.13
71649;SHT31;70112;45.624;11.760;2023-06-10T13:04:45;27.67;56.26
71649;SHT31;70112;45.624;11.760;2023-06-10T13:07:12;27.68;56.19
71649;SHT31;70112;45.624;11.760;2023-06-10T13:09:38;27.74;56.28
71649;SHT31;70112;45.624;11.760;2023-06-10T13:12:03;27.81;56.63
71649;SHT31;70112;45.624;11.760;2023-06-10T13:14:30;27.83;56.08
71649;SHT31;70112;45.624;11.760;2023-06-10T13:16:55;27.84;55.60
71649;SHT31;70112;45.624;11.760;2023-06-10T13:19:21;27.81;54.78
71649;SHT31;70112;45.624;11.760;2023-06-10T13:21:49;27.72;54.20
71649;SHT31;70112;45.624;11.760;2023-06-10T13:24:14;27.66;54.34
71649;SHT31;70112;45.624;11.760;2023-06-10T13:26:40;27.63;54.51
71649;SHT31;70112;45.624;11.760;2023-06-10T13:29:06;27.59;54.84
71649;SHT31;70112;45.624;11.760;2023-06-10T13:31:33;27.57;54.97
71649;SHT31;70112;45.624;11.760;2023-06-10T13:33:59;27.58;55.05
71649;SHT31;70112;45.624;11.760;2023-06-10T13:36:24;27.59;55.47
71649;SHT31;70112;45.624;11.760;2023-06-10T13:38:50;27.63;55.53
71649;SHT31;70112;45.624;11.760;2023-06-10T13:41:15;27.65;55.14
71649;SHT31;70112;45.624;11.760;2023-06-10T13:43:41;27.66;54.70
71649;SHT31;70112;45.624;11.760;2023-06-10T13:46:07;27.70;55.37
71649;SHT31;70112;45.624;11.760;2023-06-10T13:48:32;27.73;55.37
71649;SHT31;70112;45.624;11.760;2023-06-10T13:50:58;27.74;55.22
71649;SHT31;70112;45.624;11.760;2023-06-10T13:53:25;27.75;55.06
71649;SHT31;70112;45.624;11.760;2023-06-10T13:55:51;27.76;54.60
71649;SHT31;70112;45.624;11.760;2023-06-10T13:58:16;27.75;54.46
71649;SHT31;70112;45.624;11.760;2023-06-10T14:00:42;27.72;54.24
71649;SHT31;70112;45.624;11.760;2023-06-10T14:03:07;27.70;54.31
71649;SHT31;70112;45.624;11.760;2023-06-10T14:05:33;27.68;54.41
71649;SHT31;70112;45.624;11.760;2023-06-10T14:07:59;27.64;54.01
71649;SHT31;70112;45.624;11.760;2023-06-10T14:10:25;27.63;53.83
71649;SHT31;70112;45.624;11.760;2023-06-10T14:12:50;27.65;54.23
71649;SHT31;70112;45.624;11.760;2023-06-10T14:15:16;27.68;53.82
71649;SHT31;70112;45.624;11.760;2023-06-10T14:17:42;27.70;53.58
71649;SHT31;70112;45.624;11.760;2023-06-10T14:20:08;27.72;53.88
71649;SHT31;70112;45.624;11.760;2023-06-10T14:22:34;27.76;54.09
71649;SHT31;70112;45.624;11.760;2023-06-10T14:24:59;27.78;54.47
71649;SHT31;70112;45.624;11.760;2023-06-10T14:27:25;27.79;53.83
71649;SHT31;70112;45.624;11.760;2023-06-10T14:29:50;27.76;54.16
71649;SHT31;70112;45.624;11.760;2023-06-10T14:32:16;27.78;54.78
71649;SHT31;70112;45.624;11.760;2023-06-10T14:34:41;27.77;55.06
71649;SHT31;70112;45.624;11.760;2023-06-10T14:37:09;27.74;55.36
71649;SHT31;70112;45.624;11.760;2023-06-10T14:39:34;27.72;55.18
71649;SHT31;70112;45.624;11.760;2023-06-10T14:42:00;27.73;55.07
71649;SHT31;70112;45.624;11.760;2023-06-10T14:44:26;27.71;54.50
71649;SHT31;70112;45.624;11.760;2023-06-10T14:46:51;27.70;55.08
71649;SHT31;70112;45.624;11.760;2023-06-10T14:49:17;27.68;54.90
71649;SHT31;70112;45.624;11.760;2023-06-10T14:51:42;27.66;54.96
71649;SHT31;70112;45.624;11.760;2023-06-10T14:54:08;27.62;54.83
71649;SHT31;70112;45.624;11.760;2023-06-10T14:56:33;27.64;54.93
71649;SHT31;70112;45.624;11.760;2023-06-10T14:58:58;27.62;54.67
71649;SHT31;70112;45.624;11.760;2023-06-10T15:01:24;27.58;54.43
71649;SHT31;70112;45.624;11.760;2023-06-10T15:03:49;27.55;54.56
71649;SHT31;70112;45.624;11.760;2023-06-10T15:06:15;27.54;54.69
71649;SHT31;70112;45.624;11.760;2023-06-10T15:08:45;27.54;54.70
71649;SHT31;70112;45.624;11.760;2023-06-10T15:11:13;27.53;55.14
71649;SHT31;70112;45.624;11.760;2023-06-10T15:13:39;27.51;55.38
71649;SHT31;70112;45.624;11.760;2023-06-10T15:16:05;27.51;56.01
71649;SHT31;70112;45.624;11.760;2023-06-10T15:18:31;27.53;56.45
71649;SHT31;70112;45.624;11.760;2023-06-10T15:20:57;27.53;56.23
71649;SHT31;70112;45.624;11.760;2023-06-10T15:23:22;27.49;56.13
71649;SHT31;70112;45.624;11.760;2023-06-10T15:25:48;27.44;55.80
71649;SHT31;70112;45.624;11.760;2023-06-10T15:28:13;27.42;55.95
71649;SHT31;70112;45.624;11.760;2023-06-10T15:30:39;27.37;55.70
71649;SHT31;70112;45.624;11.760;2023-06-10T15:33:04;27.35;55.68
71649;SHT31;70112;45.624;11.760;2023-06-10T15:35:31;27.31;55.83
71649;SHT31;70112;45.624;11.760;2023-06-10T15:37:57;27.30;56.08
71649;SHT31;70112;45.624;11.760;2023-06-10T15:40:23;27.29;56.07
71649;SHT31;70112;45.624;11.760;2023-06-10T15:42:48;27.25;55.62
71649;SHT31;70112;45.624;11.760;2023-06-10T15:45:14;27.22;55.45
71649;SHT31;70112;45.624;11.760;2023-06-10T15:47:40;27.18;55.23
71649;SHT31;70112;45.624;11.760;2023-06-10T15:50:06;27.16;55.70
71649;SHT31;70112;45.624;11.760;2023-06-10T15:52:33;27.14;55.72